Time;durP1;ratioP1;P1;durP2;ratioP2;P2;SDS_P1;SDS_P2;PMS_P1;PMS_P2;Temp;Humidity;BMP_temperature;BMP_pressure;BME280_temperature;BME280_humidity;BME280_pressure;Samples;Min_cycle;Max_cycle;Signal;HPM_P1;HPM_P2
2022/01/10 04:42:53;;;;;;;57.97;31.37;;;;;;;-0.54;84.00;99865.09;6587314;26;20102;-80
2022/01/10 04:45:57;;;;;;;59.92;33.20;;;;;;;-0.53;83.50;99871.22;6626726;26;157260;-83
2022/01/10 04:49:01;;;;;;;56.88;31.92;;;;;;;-0.61;84.02;99863.91;6632637;26;33679;-83
2022/01/10 04:52:05;;;;;;;54.47;31.62;;;;;;;-0.66;84.51;99873.16;6644201;26;34014;-83
2022/01/10 04:55:08;;;;;;;59.00;32.67;;;;;;;-0.75;84.96;99874.69;6639673;26;34051;-84
2022/01/10 04:58:12;;;;;;;59.17;32.97;;;;;;;-0.73;84.90;99878.91;6632115;26;33488;-80
2022/01/10 05:01:15;;;;;;;60.22;33.05;;;;;;;-0.73;85.04;99870.97;6632546;26;34283;-80
2022/01/10 05:04:19;;;;;;;58.83;34.50;;;;;;;-0.39;82.19;99870.16;6631795;26;34922;-80
2022/01/10 05:07:22;;;;;;;60.30;33.67;;;;;;;-0.44;82.59;99875.78;6639758;26;33610;-80
2022/01/10 05:10:25;;;;;;;61.90;34.25;;;;;;;-0.52;83.33;99878.22;6632069;26;33946;-80
2022/01/10 05:13:28;;;;;;;58.90;32.30;;;;;;;-0.44;83.24;99889.00;6631778;26;33523;-80
2022/01/10 05:16:32;;;;;;;62.33;34.28;;;;;;;-0.29;81.89;99879.06;6632271;26;33882;-80
2022/01/10 05:19:34;;;;;;;60.80;32.97;;;;;;;-0.29;81.65;99882.53;6634049;26;33691;-80
2022/01/10 05:22:37;;;;;;;59.22;33.42;;;;;;;-0.19;81.33;99889.75;6634578;26;33970;-80
2022/01/10 05:25:41;;;;;;;58.35;32.63;;;;;;;-0.23;81.23;99886.50;6631683;26;34581;-80
2022/01/10 05:28:46;;;;;;;67.07;34.22;;;;;;;-0.24;81.24;99892.75;6632092;26;34969;-80
2022/01/10 05:31:49;;;;;;;61.25;34.58;;;;;;;-0.17;81.13;99883.38;6630843;26;33384;-80
2022/01/10 05:34:53;;;;;;;64.75;33.72;;;;;;;-0.29;81.49;99882.53;6634354;26;34313;-80
2022/01/10 05:37:57;;;;;;;65.75;33.33;;;;;;;-0.26;81.26;99892.03;6634148;26;34803;-80
2022/01/10 05:41:00;;;;;;;61.03;32.90;;;;;;;-0.15;81.27;99891.19;6633642;26;34130;-80
2022/01/10 05:44:04;;;;;;;64.18;33.60;;;;;;;-0.23;81.16;99894.44;6632891;26;33399;-80
2022/01/10 05:47:08;;;;;;;61.47;32.25;;;;;;;-0.21;80.58;99899.59;6633327;26;33750;-80
2022/01/10 05:50:16;;;;;;;61.35;33.67;;;;;;;-0.24;81.44;99905.97;6633517;26;33666;-80
2022/01/10 05:53:20;;;;;;;59.58;31.52;;;;;;;-0.30;81.90;99906.47;6633195;26;34117;-79
2022/01/10 05:56:22;;;;;;;63.53;34.75;;;;;;;-0.35;81.80;99911.25;6633974;26;33621;-79
2022/01/10 05:59:27;;;;;;;67.00;34.10;;;;;;;-0.44;82.11;99918.09;6633844;26;33303;-80
2022/01/10 06:02:33;;;;;;;59.33;33.80;;;;;;;-0.55;83.15;99918.94;6633850;26;33112;-80
2022/01/10 06:05:36;;;;;;;61.42;33.08;;;;;;;-0.55;82.91;99920.75;6634640;26;33595;-79
2022/01/10 06:08:39;;;;;;;60.53;32.22;;;;;;;-0.40;82.53;99934.59;6634989;26;34744;-79
2022/01/10 06:11:42;;;;;;;64.22;34.03;;;;;;;-0.26;81.72;99921.12;6634169;26;33497;-80
2022/01/10 06:14:45;;;;;;;63.05;34.13;;;;;;;-0.40;82.29;99939.87;6634603;26;34267;-80
2022/01/10 06:17:48;;;;;;;64.20;35.97;;;;;;;-0.52;83.85;99928.44;6634159;26;33940;-80
2022/01/10 06:20:51;;;;;;;62.70;35.88;;;;;;;-0.58;85.24;99937.69;6632926;26;34506;-80
2022/01/10 06:23:54;;;;;;;66.55;35.00;;;;;;;-0.68;85.83;99944.62;6632944;26;35272;-80
2022/01/10 06:26:57;;;;;;;65.55;35.83;;;;;;;-0.77;86.46;99940.03;6633515;26;34071;-79
2022/01/10 06:29:59;;;;;;;62.62;36.22;;;;;;;-0.80;86.31;99946.41;6632744;26;34284;-80
2022/01/10 06:33:04;;;;;;;67.75;36.17;;;;;;;-0.80;86.76;99949.03;6633844;26;33603;-80
2022/01/10 06:36:09;;;;;;;65.57;37.38;;;;;;;-0.81;87.06;99957.09;6633897;26;33763;-80
2022/01/10 06:39:12;;;;;;;66.68;37.53;;;;;;;-0.82;87.27;99958.91;6633985;26;33507;-79
2022/01/10 06:42:16;;;;;;;68.15;37.92;;;;;;;-0.84;87.96;99963.47;6633775;26;34319;-80
2022/01/10 06:45:19;;;;;;;62.08;34.70;;;;;;;-0.82;87.79;99964.19;6636337;26;33574;-80
2022/01/10 06:48:22;;;;;;;62.90;32.63;;;;;;;-0.74;86.26;99968.88;6636352;26;33782;-80
2022/01/10 06:51:25;;;;;;;62.58;33.40;;;;;;;-0.52;83.96;99970.75;6633565;26;33306;-80
2022/01/10 06:54:28;;;;;;;67.30;35.13;;;;;;;-0.47;83.30;99982.66;6633493;26;34086;-81
2022/01/10 06:57:31;;;;;;;63.15;33.15;;;;;;;-0.46;83.43;99978.22;6634510;26;34381;-84
2022/01/10 07:00:36;;;;;;;59.83;33.58;;;;;;;-0.43;82.70;99991.19;6639219;26;33901;-84
2022/01/10 07:03:40;;;;;;;61.55;33.60;;;;;;;-0.49;83.00;99989.88;6634021;26;33642;-84
2022/01/10 07:06:45;;;;;;;64.25;34.30;;;;;;;-0.43;82.92;99993.84;6632799;26;34390;-80
2022/01/10 07:09:48;;;;;;;64.82;33.70;;;;;;;-0.48;83.06;99996.00;6633359;26;33777;-81
2022/01/10 07:12:52;;;;;;;61.28;33.55;;;;;;;-0.50;83.36;100001.41;6633470;26;33481;-80
2022/01/10 07:15:55;;;;;;;61.65;32.60;;;;;;;-0.46;83.21;100009.94;6634295;26;34918;-80
2022/01/10 07:18:58;;;;;;;63.72;34.10;;;;;;;-0.36;82.69;100013.56;6634314;26;34212;-80
2022/01/10 07:22:01;;;;;;;59.92;33.05;;;;;;;-0.29;81.82;100014.78;6646233;26;33276;-80
2022/01/10 07:25:05;;;;;;;62.80;32.42;;;;;;;-0.27;81.80;100012.84;6641254;26;33797;-80
2022/01/10 07:28:07;;;;;;;61.95;35.30;;;;;;;-0.18;81.44;100016.59;6633526;26;34052;-80
2022/01/10 07:31:10;;;;;;;60.58;34.70;;;;;;;-0.10;81.61;100016.84;6633329;26;33978;-81
2022/01/10 07:34:15;;;;;;;63.65;34.20;;;;;;;0.09;80.86;100026.87;6633160;26;35013;-80
2022/01/10 07:37:20;;;;;;;62.47;34.00;;;;;;;0.18;79.81;100034.09;6633129;26;34386;-80
2022/01/10 07:40:24;;;;;;;60.63;32.75;;;;;;;0.19;80.03;100038.41;6633261;26;33753;-80
2022/01/10 07:43:27;;;;;;;63.22;33.95;;;;;;;0.24;79.71;100035.41;6633315;26;33532;-80
2022/01/10 07:46:30;;;;;;;60.58;34.10;;;;;;;0.27;79.88;100034.34;6634092;26;33218;-80
2022/01/10 07:49:33;;;;;;;61.55;34.65;;;;;;;0.36;80.40;100038.91;6634433;26;33461;-80
2022/01/10 07:52:36;;;;;;;64.65;35.08;;;;;;;0.41;79.33;100039.38;6633886;26;33643;-80
2022/01/10 07:55:59;;;;;;;56.67;31.50;;;;;;;0.30;80.16;100044.69;6633540;26;34459;-80
2022/01/10 07:59:02;;;;;;;57.38;33.83;;;;;;;0.29;80.24;100043.81;6633141;26;34529;-80
2022/01/10 08:02:26;;;;;;;61.37;33.90;;;;;;;0.40;80.08;100050.94;6632773;26;33679;-80
2022/01/10 08:05:49;;;;;;;58.63;32.72;;;;;;;0.54;79.31;100045.38;6633205;26;33790;-80
2022/01/10 08:09:12;;;;;;;62.90;34.30;;;;;;;0.73;78.72;100052.69;6616138;26;32187;-80
2022/01/10 08:12:34;;;;;;;57.22;32.22;;;;;;;0.86;78.15;100052.56;6632427;26;35188;-80
2022/01/10 08:15:57;;;;;;;59.03;33.65;;;;;;;0.93;77.46;100051.09;6631926;26;35218;-81
2022/01/10 08:19:00;;;;;;;59.92;33.05;;;;;;;1.05;77.69;100047.47;6633221;26;34114;-81
2022/01/10 08:22:03;;;;;;;59.55;33.50;;;;;;;1.18;76.46;100046.47;6632979;26;33661;-81
2022/01/10 08:25:10;;;;;;;61.30;31.58;;;;;;;1.27;75.36;100049.19;6632449;26;35519;-80
2022/01/10 08:28:12;;;;;;;60.88;31.98;;;;;;;1.04;76.04;100050.25;6631987;26;33146;-80
2022/01/10 08:31:15;;;;;;;56.55;32.25;;;;;;;1.02;76.29;100042.41;6632632;26;33362;-80
2022/01/10 08:34:19;;;;;;;59.55;31.92;;;;;;;1.07;76.39;100053.47;6631611;26;33691;-80
2022/01/10 08:37:23;;;;;;;60.80;33.45;;;;;;;1.36;74.88;100044.94;6631570;26;34309;-80
2022/01/10 08:40:25;;;;;;;61.53;34.20;;;;;;;1.58;73.46;100057.28;6634651;26;33969;-80
2022/01/10 08:43:28;;;;;;;53.35;29.55;;;;;;;1.70;73.20;100055.41;6631632;26;34564;-81
2022/01/10 08:46:32;;;;;;;66.65;32.55;;;;;;;1.60;72.31;100065.94;6632232;26;33250;-80
2022/01/10 08:49:35;;;;;;;57.00;31.58;;;;;;;1.42;73.20;100064.81;6632175;26;33863;-80
2022/01/10 08:52:39;;;;;;;60.08;32.80;;;;;;;1.49;72.75;100072.16;6634894;26;33663;-81
2022/01/10 08:55:42;;;;;;;59.92;32.30;;;;;;;1.67;72.43;100076.88;6634427;26;33663;-81
2022/01/10 08:58:45;;;;;;;61.33;33.40;;;;;;;1.71;72.51;100080.97;6632397;26;33155;-81
2022/01/10 09:01:48;;;;;;;56.65;32.38;;;;;;;1.75;71.97;100069.09;6632403;26;34404;-78
2022/01/10 09:04:51;;;;;;;60.80;32.85;;;;;;;1.91;71.68;100080.13;6631990;26;33413;-79
2022/01/10 09:07:56;;;;;;;57.70;32.92;;;;;;;2.03;70.74;100073.78;6631928;26;33684;-80
2022/01/10 09:10:59;;;;;;;55.88;32.97;;;;;;;1.93;71.08;100075.53;6633419;26;34225;-80
2022/01/10 09:14:02;;;;;;;55.12;33.28;;;;;;;1.95;70.54;100083.34;6633130;26;33728;-79
2022/01/10 09:17:05;;;;;;;57.83;31.75;;;;;;;2.00;70.98;100083.81;6633463;26;34446;-80
2022/01/10 09:20:08;;;;;;;59.08;32.15;;;;;;;2.03;70.21;100083.56;6633452;26;33349;-80
2022/01/10 09:23:12;;;;;;;59.13;31.40;;;;;;;2.15;70.61;100084.31;6633364;26;33724;-80
2022/01/10 09:26:15;;;;;;;55.12;31.40;;;;;;;2.26;70.45;100082.44;6632616;26;33607;-81
2022/01/10 09:29:18;;;;;;;55.75;31.80;;;;;;;2.40;69.72;100089.22;6633396;26;34309;-81
2022/01/10 09:32:21;;;;;;;55.88;31.08;;;;;;;2.33;69.63;100088.06;6633649;26;33659;-82
2022/01/10 09:35:24;;;;;;;51.50;30.23;;;;;;;2.36;69.41;100092.25;6633908;26;33615;-82
2022/01/10 09:38:27;;;;;;;54.17;29.92;;;;;;;2.42;67.95;100086.41;6633651;26;34405;-81
2022/01/10 09:41:30;;;;;;;53.53;29.83;;;;;;;2.49;68.06;100092.91;6634353;26;33577;-81
2022/01/10 09:44:34;;;;;;;54.70;30.23;;;;;;;2.53;67.47;100091.66;6633625;26;33447;-80
2022/01/10 09:47:36;;;;;;;50.78;28.50;;;;;;;2.32;67.51;100094.34;6633571;26;33671;-83
2022/01/10 09:50:41;;;;;;;54.58;28.33;;;;;;;2.38;67.79;100093.81;6634906;26;34140;-82
2022/01/10 09:53:43;;;;;;;47.08;27.35;;;;;;;2.56;67.24;100095.88;6636315;26;33664;-81
2022/01/10 09:56:48;;;;;;;49.05;26.50;;;;;;;2.57;66.93;100090.41;6634001;26;34033;-81
2022/01/10 09:59:51;;;;;;;50.38;27.50;;;;;;;2.57;67.12;100089.56;6633548;26;33391;-86
2022/01/10 10:02:54;;;;;;;44.67;26.10;;;;;;;2.67;66.52;100085.97;6636182;26;34174;-85
2022/01/10 10:05:58;;;;;;;46.03;26.15;;;;;;;2.86;66.47;100093.16;6648102;26;34455;-85
2022/01/10 10:09:05;;;;;;;44.83;25.67;;;;;;;2.85;65.47;100088.00;6640576;26;34063;-82
2022/01/10 10:12:08;;;;;;;46.83;26.27;;;;;;;2.93;65.05;100089.00;6633044;26;35056;-82
2022/01/10 10:15:15;;;;;;;48.25;25.80;;;;;;;2.94;64.96;100087.19;6632966;26;33862;-82
2022/01/10 10:18:20;;;;;;;48.15;25.62;;;;;;;2.97;65.01;100080.75;6632715;26;34110;-82
2022/01/10 10:21:23;;;;;;;46.20;25.12;;;;;;;3.10;64.41;100076.00;6632724;26;33454;-82
2022/01/10 10:24:26;;;;;;;40.05;23.65;;;;;;;3.06;64.87;100080.75;6633562;26;33241;-82
2022/01/10 10:27:38;;;;;;;43.05;24.87;;;;;;;3.21;64.05;100078.53;6632674;26;34109;-81
2022/01/10 10:30:48;;;;;;;42.90;21.87;;;;;;;3.35;63.57;100082.62;6633603;26;33561;-82
2022/01/10 10:33:53;;;;;;;35.40;20.92;;;;;;;3.31;63.61;100078.56;6633833;26;34970;-82
2022/01/10 10:37:14;;;;;;;34.70;20.35;;;;;;;3.38;63.16;100072.53;6635149;26;34138;-81
2022/01/10 10:40:17;;;;;;;38.70;20.67;;;;;;;3.53;62.88;100078.28;6634449;26;33388;-81
2022/01/10 10:43:20;;;;;;;34.65;18.77;;;;;;;3.59;62.50;100082.22;6632406;26;35063;-81
2022/01/10 10:46:26;;;;;;;28.50;14.48;;;;;;;3.63;60.96;100084.47;6632503;26;33859;-81
2022/01/10 10:49:34;;;;;;;28.80;15.90;;;;;;;3.73;59.77;100079.12;6632787;26;34275;-82
2022/01/10 10:52:40;;;;;;;28.95;16.35;;;;;;;3.71;59.47;100082.91;6634775;26;33747;-82
2022/01/10 10:55:46;;;;;;;27.17;15.33;;;;;;;3.82;59.62;100083.59;6632847;26;33630;-82
2022/01/10 10:58:49;;;;;;;25.37;14.80;;;;;;;3.91;59.37;100078.41;6633209;26;33976;-81
2022/01/10 11:01:52;;;;;;;27.40;14.73;;;;;;;4.01;58.49;100088.09;6632910;26;33747;-81
2022/01/10 11:04:55;;;;;;;26.05;14.07;;;;;;;4.15;58.13;100085.94;6633049;26;34835;-82
2022/01/10 11:07:58;;;;;;;28.05;15.25;;;;;;;4.26;56.36;100089.28;6633289;26;34304;-82
2022/01/10 11:11:01;;;;;;;24.42;14.00;;;;;;;4.12;56.55;100086.22;6633011;26;34426;-82
2022/01/10 11:14:04;;;;;;;24.02;13.77;;;;;;;4.21;56.12;100088.88;6633347;26;34483;-81
2022/01/10 11:17:16;;;;;;;23.95;13.48;;;;;;;4.27;55.65;100087.44;6633702;26;34045;-81
2022/01/10 11:20:22;;;;;;;24.30;13.52;;;;;;;4.32;54.78;100087.84;6633519;26;34480;-81
2022/01/10 11:23:27;;;;;;;24.12;14.18;;;;;;;4.41;54.66;100094.16;6634680;26;34398;-81
2022/01/10 11:26:40;;;;;;;26.65;14.50;;;;;;;4.61;53.82;100102.91;6632768;26;33638;-85
2022/01/10 11:29:43;;;;;;;28.02;15.55;;;;;;;4.78;54.39;100102.16;6632656;26;34908;-82
2022/01/10 11:33:07;;;;;;;28.00;15.38;;;;;;;4.88;53.23;100096.75;6632422;26;33738;-82
2022/01/10 11:36:27;;;;;;;26.15;14.13;;;;;;;4.84;53.01;100103.38;6633017;26;34146;-82
2022/01/10 11:39:35;;;;;;;25.75;14.23;;;;;;;4.75;53.07;100103.28;6632236;26;34274;-82
2022/01/10 11:42:46;;;;;;;27.13;13.23;;;;;;;5.09;52.25;100092.03;6633642;26;34287;-81
2022/01/10 11:45:50;;;;;;;21.67;12.48;;;;;;;5.60;49.68;100095.03;6637434;26;34150;-81
2022/01/10 11:49:08;;;;;;;22.37;12.63;;;;;;;5.92;48.22;100097.16;6634027;26;34082;-81
2022/01/10 11:52:11;;;;;;;20.75;11.80;;;;;;;5.90;47.57;100109.81;6634126;26;33528;-81
2022/01/10 11:55:14;;;;;;;20.77;11.93;;;;;;;6.21;46.13;100112.94;6632766;26;34094;-81
2022/01/10 11:58:19;;;;;;;18.25;11.60;;;;;;;6.43;45.94;100116.91;6632170;26;34149;-81
2022/01/10 12:01:32;;;;;;;20.40;11.55;;;;;;;6.62;45.70;100113.22;6632492;26;34060;-81
2022/01/10 12:04:44;;;;;;;18.23;11.10;;;;;;;7.54;43.02;100108.00;6634426;26;33604;-81
2022/01/10 12:07:48;;;;;;;17.37;11.15;;;;;;;8.04;42.37;100112.41;6633378;26;33458;-81
2022/01/10 12:11:02;;;;;;;18.73;10.60;;;;;;;8.48;40.35;100120.09;6635674;26;33930;-81
2022/01/10 12:14:06;;;;;;;19.30;11.85;;;;;;;8.65;39.14;100121.75;6632825;26;34641;-81
2022/01/10 12:17:10;;;;;;;19.58;10.80;;;;;;;9.05;38.49;100119.94;6632607;26;35066;-81
2022/01/10 12:20:13;;;;;;;18.98;10.32;;;;;;;9.59;36.97;100116.44;6633023;26;33670;-81
2022/01/10 12:23:16;;;;;;;15.57;9.68;;;;;;;10.01;36.86;100120.53;6632857;26;33498;-82
2022/01/10 12:26:21;;;;;;;18.83;10.50;;;;;;;10.38;34.88;100114.34;6632223;26;33273;-85
2022/01/10 12:29:28;;;;;;;16.85;10.23;;;;;;;9.73;35.92;100105.75;6632426;26;33248;-85
2022/01/10 12:32:34;;;;;;;17.67;10.45;;;;;;;10.23;34.99;100116.97;6634141;26;33492;-82
2022/01/10 12:35:37;;;;;;;16.95;9.23;;;;;;;11.28;34.21;100118.69;6632760;26;34389;-82
2022/01/10 12:38:40;;;;;;;17.08;9.88;;;;;;;11.30;32.87;100124.75;6632850;26;33666;-82
2022/01/10 12:41:44;;;;;;;14.98;10.20;;;;;;;11.26;32.62;100127.00;6632531;26;33459;-82
2022/01/10 12:44:47;;;;;;;15.10;8.65;;;;;;;12.07;31.54;100134.91;6633990;26;33559;-82
2022/01/10 12:47:50;;;;;;;16.58;9.43;;;;;;;12.35;30.96;100129.56;6649654;26;33863;-82
2022/01/10 12:50:54;;;;;;;16.95;9.73;;;;;;;13.22;29.45;100136.34;6641015;26;33926;-82
2022/01/10 12:53:57;;;;;;;14.80;9.00;;;;;;;13.60;29.16;100133.16;6635559;26;33163;-82
2022/01/10 12:57:02;;;;;;;16.70;8.70;;;;;;;14.40;27.66;100138.72;6632546;26;33498;-82
2022/01/10 13:00:07;;;;;;;11.18;7.47;;;;;;;15.59;25.88;100141.16;6633438;26;33504;-82
2022/01/10 13:03:10;;;;;;;13.65;9.00;;;;;;;16.12;24.96;100150.03;6634036;26;33554;-82
2022/01/10 13:06:13;;;;;;;12.73;7.97;;;;;;;15.61;24.90;100144.47;6634192;26;33127;-82
2022/01/10 13:09:17;;;;;;;12.55;7.80;;;;;;;15.38;25.39;100163.97;6634986;26;33639;-81
2022/01/10 13:12:28;;;;;;;12.07;7.55;;;;;;;13.65;26.63;100163.16;6633815;26;33263;-82
2022/01/10 13:15:35;;;;;;;12.32;7.47;;;;;;;11.79;29.19;100175.31;6634428;26;34485;-82
2022/01/10 13:18:38;;;;;;;12.05;8.32;;;;;;;10.93;30.87;100185.78;6634137;26;33947;-82
2022/01/10 13:21:47;;;;;;;11.93;7.90;;;;;;;9.36;33.26;100195.19;6633535;26;33637;-81
2022/01/10 13:24:53;;;;;;;10.98;8.10;;;;;;;7.70;36.25;100199.97;6634214;26;33597;-81
2022/01/10 13:28:04;;;;;;;12.90;8.25;;;;;;;7.13;38.29;100206.97;6635836;26;34137;-81
2022/01/10 13:31:07;;;;;;;13.45;8.60;;;;;;;6.47;39.65;100208.41;6635194;26;33428;-81
2022/01/10 13:34:25;;;;;;;14.52;8.38;;;;;;;5.88;41.38;100205.34;6634186;26;33906;-81
2022/01/10 13:37:31;;;;;;;11.65;7.57;;;;;;;5.65;41.84;100213.78;6634334;26;33588;-80
2022/01/10 13:40:43;;;;;;;13.07;8.15;;;;;;;5.27;42.69;100219.34;6634653;26;33378;-81
2022/01/10 13:43:49;;;;;;;15.55;7.75;;;;;;;4.96;43.77;100220.41;6634485;26;34024;-81
2022/01/10 13:47:00;;;;;;;14.05;8.18;;;;;;;4.84;44.70;100218.06;6634131;26;33974;-81
2022/01/10 13:50:20;;;;;;;12.95;7.65;;;;;;;4.74;45.51;100224.28;6634211;26;34065;-85
2022/01/10 13:53:29;;;;;;;16.30;9.10;;;;;;;4.51;45.56;100225.59;6634533;26;33353;-81
2022/01/10 13:56:32;;;;;;;15.88;7.93;;;;;;;4.44;45.94;100227.13;6633870;26;33730;-81
2022/01/10 13:59:37;;;;;;;17.90;8.70;;;;;;;4.39;46.38;100232.91;6634275;26;33294;-81
2022/01/10 14:02:41;;;;;;;15.13;8.05;;;;;;;4.22;46.83;100237.09;6632597;26;34222;-81
2022/01/10 14:05:44;;;;;;;13.80;8.50;;;;;;;4.16;46.99;100243.00;6632830;26;34650;-81
2022/01/10 14:08:53;;;;;;;14.52;7.50;;;;;;;4.09;47.34;100242.72;6633724;26;33544;-81
2022/01/10 14:11:56;;;;;;;13.93;7.80;;;;;;;4.06;47.57;100252.78;6635673;26;33955;-80
2022/01/10 14:14:58;;;;;;;14.07;7.60;;;;;;;4.02;47.59;100256.72;6633589;26;34432;-81
2022/01/10 14:18:05;;;;;;;13.50;7.18;;;;;;;3.84;47.94;100260.06;6641203;26;34476;-79
2022/01/10 14:21:08;;;;;;;15.57;7.57;;;;;;;3.81;48.21;100268.34;6644543;26;33786;-79
2022/01/10 14:24:11;;;;;;;11.43;7.00;;;;;;;3.75;48.26;100278.69;6636946;26;33749;-80
2022/01/10 14:27:14;;;;;;;11.45;6.82;;;;;;;3.80;48.01;100273.78;6634549;26;33086;-80
2022/01/10 14:30:18;;;;;;;10.93;6.40;;;;;;;3.68;48.42;100281.03;6634014;26;33686;-78
2022/01/10 14:33:23;;;;;;;13.75;6.82;;;;;;;3.59;48.54;100280.03;6633359;26;33701;-81
2022/01/10 14:36:26;;;;;;;10.15;6.32;;;;;;;3.57;49.44;100281.16;6633408;26;33578;-80
2022/01/10 14:39:29;;;;;;;11.68;6.22;;;;;;;3.59;48.74;100285.34;6632889;26;33323;-80
2022/01/10 14:42:32;;;;;;;12.48;6.10;;;;;;;3.64;48.62;100295.59;6635142;26;33805;-81
2022/01/10 14:45:37;;;;;;;9.63;6.20;;;;;;;3.57;49.18;100286.50;6640082;26;33359;-80
2022/01/10 14:48:40;;;;;;;9.45;6.10;;;;;;;3.54;48.97;100290.25;6640601;26;34745;-80
2022/01/10 14:51:43;;;;;;;12.88;5.68;;;;;;;3.43;49.51;100310.81;6642137;26;34150;-80
2022/01/10 14:54:46;;;;;;;10.50;6.45;;;;;;;3.43;50.11;100308.16;6639933;26;34117;-79
2022/01/10 14:57:49;;;;;;;12.15;6.10;;;;;;;3.30;49.76;100311.84;6642049;26;33725;-80
2022/01/10 15:00:52;;;;;;;10.90;6.25;;;;;;;3.21;50.54;100317.97;6644765;26;33611;-80
2022/01/10 15:03:55;;;;;;;10.88;6.03;;;;;;;3.11;50.45;100333.03;6642722;26;33754;-80
2022/01/10 15:06:58;;;;;;;11.30;6.30;;;;;;;3.01;50.79;100332.13;6638299;26;33755;-80
2022/01/10 15:10:01;;;;;;;14.45;6.70;;;;;;;2.85;52.37;100344.06;6631908;26;33688;-80
2022/01/10 15:13:06;;;;;;;10.27;6.40;;;;;;;2.83;51.52;100353.13;6632521;26;34310;-80
2022/01/10 15:16:10;;;;;;;9.68;5.82;;;;;;;2.71;53.46;100344.38;6633303;26;33552;-81
2022/01/10 15:19:13;;;;;;;14.07;6.55;;;;;;;2.58;52.81;100351.69;6632957;26;33825;-80
2022/01/10 15:22:16;;;;;;;14.35;6.82;;;;;;;2.69;52.92;100362.25;6633124;26;33909;-81
2022/01/10 15:25:19;;;;;;;17.02;6.87;;;;;;;2.71;52.84;100365.63;6632889;26;35089;-81
2022/01/10 15:28:22;;;;;;;14.27;6.90;;;;;;;2.58;52.96;100376.44;6634619;26;33737;-80
2022/01/10 15:31:25;;;;;;;22.65;11.57;;;;;;;2.46;54.26;100386.28;6632828;26;33748;-80
2022/01/10 15:34:32;;;;;;;21.12;11.90;;;;;;;2.46;57.16;100394.25;6633445;26;33631;-81
2022/01/10 15:37:36;;;;;;;25.83;12.63;;;;;;;2.42;58.90;100411.38;6633577;26;33780;-84
2022/01/10 15:40:39;;;;;;;26.60;13.20;;;;;;;2.30;59.97;100409.72;6634045;26;33340;-84
2022/01/10 15:43:46;;;;;;;25.83;12.98;;;;;;;2.15;60.87;100405.66;6632801;26;34139;-81
2022/01/10 15:46:50;;;;;;;29.02;15.43;;;;;;;1.98;62.40;100417.63;6633334;26;34129;-81
2022/01/10 15:49:53;;;;;;;30.88;17.33;;;;;;;1.78;63.79;100421.84;6632965;26;33600;-81
2022/01/10 15:52:55;;;;;;;30.20;16.20;;;;;;;1.94;66.00;100427.66;6633073;26;33666;-81
2022/01/10 15:55:58;;;;;;;36.53;18.85;;;;;;;1.81;66.88;100433.09;6633020;26;34811;-81
2022/01/10 15:59:01;;;;;;;34.75;17.83;;;;;;;1.72;68.13;100439.09;6633114;26;34382;-81
2022/01/10 16:02:07;;;;;;;33.45;17.80;;;;;;;1.70;68.53;100440.19;6632228;26;33724;-81
2022/01/10 16:05:11;;;;;;;37.83;18.98;;;;;;;1.58;69.41;100445.50;6632888;26;33212;-81
2022/01/10 16:08:19;;;;;;;34.35;17.77;;;;;;;1.53;69.77;100449.47;6633173;26;33528;-81
2022/01/10 16:11:23;;;;;;;32.88;17.15;;;;;;;1.46;69.92;100454.37;6632838;26;33643;-81
2022/01/10 16:14:27;;;;;;;30.05;16.27;;;;;;;1.40;71.00;100460.16;6632955;26;34840;-80
2022/01/10 16:17:30;;;;;;;32.90;16.73;;;;;;;1.33;71.13;100465.06;6633154;26;33796;-81
2022/01/10 16:20:33;;;;;;;30.98;16.67;;;;;;;1.29;70.73;100476.91;6633666;26;33373;-80
2022/01/10 16:23:38;;;;;;;33.83;18.17;;;;;;;1.22;71.48;100480.94;6635754;26;33346;-81
2022/01/10 16:26:43;;;;;;;30.17;16.70;;;;;;;1.18;71.63;100483.97;6635950;26;33535;-80
2022/01/10 16:29:49;;;;;;;32.67;17.92;;;;;;;1.09;72.10;100498.75;6635558;26;34459;-80
2022/01/10 16:32:51;;;;;;;30.05;16.62;;;;;;;1.12;72.35;100501.19;6642259;26;33616;-80
2022/01/10 16:35:54;;;;;;;27.92;16.62;;;;;;;1.04;72.97;100500.91;6653460;26;35293;-80
2022/01/10 16:38:57;;;;;;;28.45;15.70;;;;;;;0.92;73.15;100497.34;6633265;26;34076;-80
2022/01/10 16:42:02;;;;;;;30.10;16.30;;;;;;;0.85;74.06;100510.22;6632765;26;33549;-81
2022/01/10 16:45:05;;;;;;;27.50;16.20;;;;;;;0.76;74.25;100510.00;6633043;26;33681;-80
2022/01/10 16:48:08;;;;;;;29.58;15.55;;;;;;;0.70;74.60;100507.81;6632867;26;33365;-81
2022/01/10 16:51:12;;;;;;;28.55;15.82;;;;;;;0.66;74.64;100518.63;6632810;26;33641;-81
2022/01/10 16:54:15;;;;;;;29.45;15.13;;;;;;;0.61;74.75;100520.75;6632439;26;34304;-81
2022/01/10 16:57:26;;;;;;;27.95;15.15;;;;;;;0.65;74.23;100522.25;6632928;26;33396;-81
2022/01/10 17:00:29;;;;;;;28.80;16.00;;;;;;;0.66;74.35;100531.03;6632880;26;33572;-81
2022/01/10 17:03:31;;;;;;;27.40;15.15;;;;;;;0.72;74.12;100538.53;6632561;26;34466;-81
2022/01/10 17:06:34;;;;;;;29.35;15.05;;;;;;;0.59;74.25;100545.69;6632515;26;33272;-81
